Eurodam — PHOS — position and weather

sailwx.info

Track history (hours):
 
Tides and Currents Weather Stations Pressure Air Temp Water Temp Dewpoint Dewpoint Depression Visibility Wind Speed Wind Dir Waves Ship Positions

Eurodam (Netherlands)

Last reported at 2018-Aug-15 12:00 UTC. Time now 2018-Aug-15 12:36 UTC.
Position N 56°54' W 135°54'.

Length 287 m; draft 8 m.

Type: Ship. MMSI: 245206000.

Wind from 260 at 9 knots

Barometer 1017.5 mb
Air temperature 14.0 ° C
Visibility: greater than 10.8 NM
Dewpoint 3.9 ° C
Water temperature 13.1 ° C

Date/timePositionNaut miles runAvg speedWind from/ knotsBaromVisibWave heightAir tempDewpointWater temp
2018-Aug-15 12:00N 56°54' W 135°54'85 8.6 260 / 91017.510.8 14.0 3.913.1
2018-Aug-15 02:08N 58°18' W 136°15'214.8
2018-Aug-15 02:00N 58°18' W 136°11'612.5
2018-Aug-15 01:31N 58°22' W 136°01'5 9.1
2018-Aug-15 01:01N 58°26' W 135°59'510.8
2018-Aug-15 00:31N 58°31' W 136°04'713.6
2018-Aug-15 00:00N 58°38' W 136°03'713.1
2018-Aug-14 23:30N 58°43' W 136°10'713.6
2018-Aug-14 22:59N 58°47' W 136°21'0 0.0
2018-Aug-14 16:33N 58°47' W 136°21'117.5
2018-Aug-14 16:29N 58°46' W 136°19'918.5
2018-Aug-14 16:00N 58°39' W 136°08'917.4
2018-Aug-14 15:30N 58°31' W 136°04'612.3
2018-Aug-14 15:00N 58°25' W 135°59'5 9.2
2018-Aug-14 14:30N 58°21' W 135°57'612.3
2018-Aug-14 14:00N 58°18' W 135°46'612.5
2018-Aug-14 13:29N 58°16' W 135°35'612.0
2018-Aug-14 13:00N 58°14' W 135°24'23 7.5
2018-Aug-14 10:00N 58°18' W 134°42'42411.0 180 / 51008.9 2.2 13.412.110.6
2018-Aug-12 19:34N 51°36' W 130°47'321.7
2018-Aug-12 19:27N 51°34' W 130°44'1121.5
2018-Aug-12 18:56N 51°26' W 130°31'3121.0
2018-Aug-12 17:26N 51°03' W 129°57'1120.7
2018-Aug-12 16:54N 50°56' W 129°44'820.9
2018-Aug-12 16:30N 50°50' W 129°35'1121.3
2018-Aug-12 16:00N 50°42' W 129°23'1021.0
2018-Aug-12 15:30N 50°36' W 129°10'1020.6
2018-Aug-12 15:01N 50°29' W 128°57'1020.6
2018-Aug-12 14:30N 50°22' W 128°46'1220.5
2018-Aug-12 13:57N 50°14' W 128°32'1020.7
2018-Aug-12 13:27N 50°08' W 128°20'5220.8
2018-Aug-12 10:57N 49°36' W 127°16'1121.3
2018-Aug-12 10:25N 49°29' W 127°02'921.5
2018-Aug-12 10:00N 49°24' W 126°51'1121.4
2018-Aug-12 09:30N 49°17' W 126°38'1121.5
2018-Aug-12 09:00N 49°11' W 126°25'1121.5
2018-Aug-12 08:30N 49°05' W 126°11'1021.0
2018-Aug-12 08:00N 48°59' W 125°58'1021.0
2018-Aug-12 07:30N 48°53' W 125°45'1121.5
2018-Aug-12 07:00N 48°47' W 125°31'1122.1
2018-Aug-12 06:30N 48°41' W 125°17'1122.6
2018-Aug-12 06:00N 48°36' W 125°02'1122.6
2018-Aug-12 05:30N 48°31' W 124°46'1122.7
2018-Aug-12 05:00N 48°27' W 124°31'1122.5
2018-Aug-12 04:30N 48°23' W 124°15'1122.4
2018-Aug-12 03:59N 48°18' W 123°59'1122.4
2018-Aug-12 03:30N 48°16' W 123°43'2317.0
2018-Aug-12 02:08N 48°12' W 123°08'321.3
2018-Aug-12 02:00N 48°12' W 123°04'1819.6
2018-Aug-12 01:04N 48°05' W 122°39'120.0
2018-Aug-12 01:00N 48°04' W 122°39'1019.9
2018-Aug-12 00:30N 47°56' W 122°31'1121.4
2018-Aug-12 00:00N 47°45' W 122°26'4218.4
2018-Aug-12 00:00N 47°42' W 122°24'5 9.4 170 / 151016.110.8 20.010.713.0
2018-Aug-11 23:30N 47°37' W 122°24'1 1.4
2018-Aug-11 22:59N 47°38' W 122°23'0 0.0
2018-Aug-11 22:29N 47°38' W 122°23'0 0.0
2018-Aug-11 21:59N 47°38' W 122°23'0 0.0
2018-Aug-11 21:29N 47°38' W 122°23'0 0.0
2018-Aug-11 20:59N 47°38' W 122°23'0 0.0
2018-Aug-11 20:29N 47°38' W 122°23'0 0.0
2018-Aug-11 19:59N 47°38' W 122°23'0 0.0
2018-Aug-11 19:29N 47°38' W 122°23'0 0.0
2018-Aug-11 18:59N 47°38' W 122°23'0 0.0
2018-Aug-11 18:29N 47°38' W 122°23'0 0.0
2018-Aug-11 17:59N 47°38' W 122°23'0 0.0
2018-Aug-11 17:29N 47°38' W 122°23'0 0.0
2018-Aug-11 16:59N 47°38' W 122°23'0 0.0
2018-Aug-11 16:29N 47°38' W 122°23'0 0.0
2018-Aug-11 15:59N 47°38' W 122°23'0 0.0
2018-Aug-11 15:29N 47°38' W 122°23'0 0.0
2018-Aug-11 14:59N 47°38' W 122°23'0 0.0
2018-Aug-11 14:29N 47°38' W 122°23'0 0.0
2018-Aug-11 13:59N 47°38' W 122°23'0 0.0
2018-Aug-11 13:29N 47°38' W 122°23'0 0.0
2018-Aug-11 12:59N 47°38' W 122°23'0 0.1
2018-Aug-11 12:30N 47°38' W 122°23'3 5.4
2018-Aug-11 12:00N 47°38' W 122°27'713.9
2018-Aug-11 11:30N 47°45' W 122°27'714.6
2018-Aug-11 11:00N 47°53' W 122°29'713.3
2018-Aug-11 10:30N 47°58' W 122°35'814.0
2018-Aug-11 09:56N 48°05' W 122°39'1014.0
2018-Aug-11 09:13N 48°11' W 122°52'315.5
2018-Aug-11 09:00N 48°11' W 122°57'814.8
2018-Aug-11 08:28N 48°12' W 123°08'715.0
2018-Aug-11 07:59N 48°10' W 123°19'910.5
2018-Aug-11 07:05N 48°18' W 123°28'218.6
2018-Aug-11 06:59N 48°19' W 123°27'6 9.3
2018-Aug-11 06:24N 48°24' W 123°24'1 0.4
2018-Aug-11 04:22N 48°25' W 123°23'0 0.0
2018-Aug-11 03:45N 48°25' W 123°23'0 0.0
2018-Aug-11 03:15N 48°25' W 123°23'0 0.0
2018-Aug-11 02:01N 48°25' W 123°23'0 0.0
2018-Aug-11 01:47N 48°25' W 123°23'0 0.0
2018-Aug-11 01:26N 48°25' W 123°23'0 0.1
2018-Aug-11 00:45N 48°25' W 123°23'1 3.0
2018-Aug-11 00:30N 48°25' W 123°24'612.3
2018-Aug-11 00:00N 48°19' W 123°25'1018.5
2018-Aug-10 23:27N 48°13' W 123°38'1123.4
2018-Aug-10 23:00N 48°13' W 123°54'1223.6
2018-Aug-10 22:30N 48°18' W 124°10'1123.3
2018-Aug-10 22:00N 48°23' W 124°26'1121.2
2018-Aug-10 21:30N 48°28' W 124°40'1120.3
2018-Aug-10 20:59N 48°29' W 124°56'1020.0
2018-Aug-10 20:30N 48°29' W 125°11'1020.3
2018-Aug-10 20:00N 48°35' W 125°24'1121.4
2018-Aug-10 19:31N 48°42' W 125°36'1121.2
2018-Aug-10 19:00N 48°49' W 125°48'1121.1
2018-Aug-10 18:30N 48°56' W 125°59'1121.3
2018-Aug-10 18:00N 49°03' W 126°12'1020.9
2018-Aug-10 17:30N 49°10' W 126°24'1121.0
2018-Aug-10 17:00N 49°16' W 126°36'1121.5
2018-Aug-10 16:30N 49°23' W 126°49'1121.8
2018-Aug-10 16:00N 49°30' W 127°02'1122.2
2018-Aug-10 15:30N 49°39' W 127°13'1122.2
2018-Aug-10 15:00N 49°47' W 127°25'1222.2
2018-Aug-10 14:28N 49°52' W 127°41'1123.0
2018-Aug-10 14:00N 49°59' W 127°54'1121.8
2018-Aug-10 13:29N 50°06' W 128°08'1122.1
2018-Aug-10 13:00N 50°15' W 128°16'1122.7
2018-Aug-10 12:30N 50°26' W 128°23'1123.0
2018-Aug-10 12:01N 50°36' W 128°32'1122.1
2018-Aug-10 11:30N 50°45' W 128°41'1122.3
2018-Aug-10 11:01N 50°55' W 128°50'1121.7
2018-Aug-10 10:30N 51°04' W 128°58'1122.0
2018-Aug-10 10:01N 51°14' W 129°06'1122.3
2018-Aug-10 09:30N 51°24' W 129°14'1122.2
2018-Aug-10 09:00N 51°34' W 129°22'1122.2
2018-Aug-10 08:30N 51°44' W 129°30'1122.6
2018-Aug-10 08:00N 51°54' W 129°38'1122.7
2018-Aug-10 07:31N 52°04' W 129°46'1421.9
2018-Aug-10 06:52N 52°17' W 129°56'921.7
2018-Aug-10 06:27N 52°25' W 130°02'1221.6
2018-Aug-10 05:53N 52°36' W 130°10'2121.2
2018-Aug-10 04:53N 52°55' W 130°25'1921.1
2018-Aug-10 03:59N 53°13' W 130°38'1021.5
2018-Aug-10 03:30N 53°22' W 130°44'1121.6
2018-Aug-10 03:00N 53°32' W 130°51'1121.1
2018-Aug-10 02:30N 53°43' W 130°54'1121.4
2018-Aug-10 02:00N 53°53' W 130°57'1121.2
2018-Aug-10 01:30N 54°03' W 131°01'1020.8
2018-Aug-10 01:00N 54°14' W 131°03'1019.5
2018-Aug-10 00:30N 54°23' W 131°10'1020.1
2018-Aug-10 00:00N 54°31' W 131°20'1121.1
2018-Aug-09 23:30N 54°40' W 131°29'1121.3
2018-Aug-09 22:58N 54°50' W 131°39'257 5.7
2018-Aug-08 01:46N 58°18' W 136°11'417.0
2018-Aug-08 01:30N 58°20' W 136°03'612.5
2018-Aug-08 01:00N 58°25' W 135°59'510.6
2018-Aug-08 00:30N 58°30' W 136°04'714.7
2018-Aug-08 00:00N 58°38' W 136°03'714.4
2018-Aug-07 23:30N 58°43' W 136°11'916.7
2018-Aug-07 22:59N 58°48' W 136°26'22 7.2
2018-Aug-07 20:00N 59°00' W 137°00'26 6.9 040 / 11011.6 2.2 8.9 8.1 6.3
2018-Aug-07 16:10N 58°45' W 136°18'319.4
2018-Aug-07 16:00N 58°43' W 136°13'1019.2
2018-Aug-07 15:30N 58°35' W 136°04'918.3
2018-Aug-07 15:00N 58°26' W 135°59'611.9
2018-Aug-07 14:30N 58°20' W 135°56'611.8
2018-Aug-07 14:00N 58°18' W 135°46'612.8
2018-Aug-07 13:30N 58°16' W 135°34'713.0
2018-Aug-07 12:56N 58°13' W 135°22'1515.4
2018-Aug-07 12:00N 58°12' W 134°54'6 6.0 150 / 241015.210.8 15.8 9.512.9
2018-Aug-07 11:00N 58°18' W 134°54'238 8.2 170 / 181015.210.8 16.1 9.212.9
2018-Aug-06 06:00N 54°30' W 132°48'411.9 340 / 181017.310.8 14.912.611.2
2018-Aug-06 05:39N 54°34' W 132°51'318.1
2018-Aug-06 05:30N 54°32' W 132°47'4118.4
2018-Aug-06 03:18N 54°22' W 131°39'618.5
2018-Aug-06 02:58N 54°21' W 131°29'918.9
2018-Aug-06 02:30N 54°19' W 131°14'918.0
2018-Aug-06 02:01N 54°14' W 131°02'1019.5
2018-Aug-06 01:30N 54°04' W 130°60'1019.5
2018-Aug-06 01:00N 53°55' W 130°57'1020.3
2018-Aug-06 00:31N 53°45' W 130°53'1020.1
2018-Aug-06 00:01N 53°35' W 130°50'1020.2
2018-Aug-05 23:31N 53°25' W 130°45'1019.6
2018-Aug-05 23:00N 53°16' W 130°39'2121.1
2018-Aug-05 22:01N 52°57' W 130°25'121.7
2018-Aug-05 21:59N 52°56' W 130°24'1621.3
2018-Aug-05 21:14N 52°41' W 130°14'521.5
2018-Aug-05 21:00N 52°37' W 130°11'1121.4
2018-Aug-05 20:28N 52°27' W 130°03'1021.2
2018-Aug-05 20:00N 52°18' W 129°56'1020.9
2018-Aug-05 19:30N 52°08' W 129°49'1020.4
2018-Aug-05 19:00N 51°59' W 129°42'1020.4
2018-Aug-05 18:31N 51°50' W 129°35'1020.6
2018-Aug-05 18:00N 51°41' W 129°28'1020.8
2018-Aug-05 17:31N 51°31' W 129°20'1020.7
2018-Aug-05 17:00N 51°22' W 129°12'1121.3
2018-Aug-05 16:31N 51°13' W 129°05'1121.6
2018-Aug-05 16:00N 51°03' W 128°57'1020.5
2018-Aug-05 15:31N 50°54' W 128°49'1020.9
2018-Aug-05 15:01N 50°45' W 128°41'1121.4
2018-Aug-05 14:30N 50°35' W 128°33'2221.4
2018-Aug-05 13:29N 50°17' W 128°14'1122.3
2018-Aug-05 13:00N 50°08' W 128°05'  
Track history (hours):
 
Tides and Currents Weather Stations Pressure Air Temp Water Temp Dewpoint Dewpoint Depression Visibility Wind Speed Wind Dir Waves Ship Positions

Eurodam (Netherlands)

Last reported at 2018-Aug-15 12:00 UTC. Time now 2018-Aug-15 12:36 UTC.
Position N 56°54' W 135°54'.

Length 287 m; draft 8 m.

Type: Ship. MMSI: 245206000.

Wind from 260 at 9 knots

Barometer 1017.5 mb
Air temperature 14.0 ° C
Visibility: greater than 10.8 NM
Dewpoint 3.9 ° C
Water temperature 13.1 ° C

Date/timePositionNaut miles runAvg speedWind from/ knotsBaromVisibWave heightAir tempDewpointWater temp
2018-Aug-15 12:00N 56°54' W 135°54'85 8.6 260 / 91017.510.8 14.0 3.913.1
2018-Aug-15 02:08N 58°18' W 136°15'214.8
2018-Aug-15 02:00N 58°18' W 136°11'612.5
2018-Aug-15 01:31N 58°22' W 136°01'5 9.1
2018-Aug-15 01:01N 58°26' W 135°59'510.8
2018-Aug-15 00:31N 58°31' W 136°04'713.6
2018-Aug-15 00:00N 58°38' W 136°03'713.1
2018-Aug-14 23:30N 58°43' W 136°10'713.6
2018-Aug-14 22:59N 58°47' W 136°21'0 0.0
2018-Aug-14 16:33N 58°47' W 136°21'117.5
2018-Aug-14 16:29N 58°46' W 136°19'918.5
2018-Aug-14 16:00N 58°39' W 136°08'917.4
2018-Aug-14 15:30N 58°31' W 136°04'612.3
2018-Aug-14 15:00N 58°25' W 135°59'5 9.2
2018-Aug-14 14:30N 58°21' W 135°57'612.3
2018-Aug-14 14:00N 58°18' W 135°46'612.5
2018-Aug-14 13:29N 58°16' W 135°35'612.0
2018-Aug-14 13:00N 58°14' W 135°24'23 7.5
2018-Aug-14 10:00N 58°18' W 134°42'42411.0 180 / 51008.9 2.2 13.412.110.6
2018-Aug-12 19:34N 51°36' W 130°47'321.7
2018-Aug-12 19:27N 51°34' W 130°44'1121.5
2018-Aug-12 18:56N 51°26' W 130°31'3121.0
2018-Aug-12 17:26N 51°03' W 129°57'1120.7
2018-Aug-12 16:54N 50°56' W 129°44'820.9
2018-Aug-12 16:30N 50°50' W 129°35'1121.3
2018-Aug-12 16:00N 50°42' W 129°23'1021.0
2018-Aug-12 15:30N 50°36' W 129°10'1020.6
2018-Aug-12 15:01N 50°29' W 128°57'1020.6
2018-Aug-12 14:30N 50°22' W 128°46'1220.5
2018-Aug-12 13:57N 50°14' W 128°32'1020.7
2018-Aug-12 13:27N 50°08' W 128°20'5220.8
2018-Aug-12 10:57N 49°36' W 127°16'1121.3
2018-Aug-12 10:25N 49°29' W 127°02'921.5
2018-Aug-12 10:00N 49°24' W 126°51'1121.4
2018-Aug-12 09:30N 49°17' W 126°38'1121.5
2018-Aug-12 09:00N 49°11' W 126°25'1121.5
2018-Aug-12 08:30N 49°05' W 126°11'1021.0
2018-Aug-12 08:00N 48°59' W 125°58'1021.0
2018-Aug-12 07:30N 48°53' W 125°45'1121.5
2018-Aug-12 07:00N 48°47' W 125°31'1122.1
2018-Aug-12 06:30N 48°41' W 125°17'1122.6
2018-Aug-12 06:00N 48°36' W 125°02'1122.6
2018-Aug-12 05:30N 48°31' W 124°46'1122.7
2018-Aug-12 05:00N 48°27' W 124°31'1122.5
2018-Aug-12 04:30N 48°23' W 124°15'1122.4
2018-Aug-12 03:59N 48°18' W 123°59'1122.4
2018-Aug-12 03:30N 48°16' W 123°43'2317.0
2018-Aug-12 02:08N 48°12' W 123°08'321.3
2018-Aug-12 02:00N 48°12' W 123°04'1819.6
2018-Aug-12 01:04N 48°05' W 122°39'120.0
2018-Aug-12 01:00N 48°04' W 122°39'1019.9
2018-Aug-12 00:30N 47°56' W 122°31'1121.4
2018-Aug-12 00:00N 47°45' W 122°26'4218.4
2018-Aug-12 00:00N 47°42' W 122°24'5 9.4 170 / 151016.110.8 20.010.713.0
2018-Aug-11 23:30N 47°37' W 122°24'1 1.4
2018-Aug-11 22:59N 47°38' W 122°23'0 0.0
2018-Aug-11 22:29N 47°38' W 122°23'0 0.0
2018-Aug-11 21:59N 47°38' W 122°23'0 0.0
2018-Aug-11 21:29N 47°38' W 122°23'0 0.0
2018-Aug-11 20:59N 47°38' W 122°23'0 0.0
2018-Aug-11 20:29N 47°38' W 122°23'0 0.0
2018-Aug-11 19:59N 47°38' W 122°23'0 0.0
2018-Aug-11 19:29N 47°38' W 122°23'0 0.0
2018-Aug-11 18:59N 47°38' W 122°23'0 0.0
2018-Aug-11 18:29N 47°38' W 122°23'0 0.0
2018-Aug-11 17:59N 47°38' W 122°23'0 0.0
2018-Aug-11 17:29N 47°38' W 122°23'0 0.0
2018-Aug-11 16:59N 47°38' W 122°23'0 0.0
2018-Aug-11 16:29N 47°38' W 122°23'0 0.0
2018-Aug-11 15:59N 47°38' W 122°23'0 0.0
2018-Aug-11 15:29N 47°38' W 122°23'0 0.0
2018-Aug-11 14:59N 47°38' W 122°23'0 0.0
2018-Aug-11 14:29N 47°38' W 122°23'0 0.0
2018-Aug-11 13:59N 47°38' W 122°23'0 0.0
2018-Aug-11 13:29N 47°38' W 122°23'0 0.0
2018-Aug-11 12:59N 47°38' W 122°23'0 0.1
2018-Aug-11 12:30N 47°38' W 122°23'3 5.4
2018-Aug-11 12:00N 47°38' W 122°27'713.9
2018-Aug-11 11:30N 47°45' W 122°27'714.6
2018-Aug-11 11:00N 47°53' W 122°29'713.3
2018-Aug-11 10:30N 47°58' W 122°35'814.0
2018-Aug-11 09:56N 48°05' W 122°39'1014.0
2018-Aug-11 09:13N 48°11' W 122°52'315.5
2018-Aug-11 09:00N 48°11' W 122°57'814.8
2018-Aug-11 08:28N 48°12' W 123°08'715.0
2018-Aug-11 07:59N 48°10' W 123°19'910.5
2018-Aug-11 07:05N 48°18' W 123°28'218.6
2018-Aug-11 06:59N 48°19' W 123°27'6 9.3
2018-Aug-11 06:24N 48°24' W 123°24'1 0.4
2018-Aug-11 04:22N 48°25' W 123°23'0 0.0
2018-Aug-11 03:45N 48°25' W 123°23'0 0.0
2018-Aug-11 03:15N 48°25' W 123°23'0 0.0
2018-Aug-11 02:01N 48°25' W 123°23'0 0.0
2018-Aug-11 01:47N 48°25' W 123°23'0 0.0
2018-Aug-11 01:26N 48°25' W 123°23'0 0.1
2018-Aug-11 00:45N 48°25' W 123°23'1 3.0
2018-Aug-11 00:30N 48°25' W 123°24'612.3
2018-Aug-11 00:00N 48°19' W 123°25'1018.5
2018-Aug-10 23:27N 48°13' W 123°38'1123.4
2018-Aug-10 23:00N 48°13' W 123°54'1223.6
2018-Aug-10 22:30N 48°18' W 124°10'1123.3
2018-Aug-10 22:00N 48°23' W 124°26'1121.2
2018-Aug-10 21:30N 48°28' W 124°40'1120.3
2018-Aug-10 20:59N 48°29' W 124°56'1020.0
2018-Aug-10 20:30N 48°29' W 125°11'1020.3
2018-Aug-10 20:00N 48°35' W 125°24'1121.4
2018-Aug-10 19:31N 48°42' W 125°36'1121.2
2018-Aug-10 19:00N 48°49' W 125°48'1121.1
2018-Aug-10 18:30N 48°56' W 125°59'1121.3
2018-Aug-10 18:00N 49°03' W 126°12'1020.9
2018-Aug-10 17:30N 49°10' W 126°24'1121.0
2018-Aug-10 17:00N 49°16' W 126°36'1121.5
2018-Aug-10 16:30N 49°23' W 126°49'1121.8
2018-Aug-10 16:00N 49°30' W 127°02'1122.2
2018-Aug-10 15:30N 49°39' W 127°13'1122.2
2018-Aug-10 15:00N 49°47' W 127°25'1222.2
2018-Aug-10 14:28N 49°52' W 127°41'1123.0
2018-Aug-10 14:00N 49°59' W 127°54'1121.8
2018-Aug-10 13:29N 50°06' W 128°08'1122.1
2018-Aug-10 13:00N 50°15' W 128°16'1122.7
2018-Aug-10 12:30N 50°26' W 128°23'1123.0
2018-Aug-10 12:01N 50°36' W 128°32'1122.1
2018-Aug-10 11:30N 50°45' W 128°41'1122.3
2018-Aug-10 11:01N 50°55' W 128°50'1121.7
2018-Aug-10 10:30N 51°04' W 128°58'1122.0
2018-Aug-10 10:01N 51°14' W 129°06'1122.3
2018-Aug-10 09:30N 51°24' W 129°14'1122.2
2018-Aug-10 09:00N 51°34' W 129°22'1122.2
2018-Aug-10 08:30N 51°44' W 129°30'1122.6
2018-Aug-10 08:00N 51°54' W 129°38'1122.7
2018-Aug-10 07:31N 52°04' W 129°46'1421.9
2018-Aug-10 06:52N 52°17' W 129°56'921.7
2018-Aug-10 06:27N 52°25' W 130°02'1221.6
2018-Aug-10 05:53N 52°36' W 130°10'2121.2
2018-Aug-10 04:53N 52°55' W 130°25'1921.1
2018-Aug-10 03:59N 53°13' W 130°38'1021.5
2018-Aug-10 03:30N 53°22' W 130°44'1121.6
2018-Aug-10 03:00N 53°32' W 130°51'1121.1
2018-Aug-10 02:30N 53°43' W 130°54'1121.4
2018-Aug-10 02:00N 53°53' W 130°57'1121.2
2018-Aug-10 01:30N 54°03' W 131°01'1020.8
2018-Aug-10 01:00N 54°14' W 131°03'1019.5
2018-Aug-10 00:30N 54°23' W 131°10'1020.1
2018-Aug-10 00:00N 54°31' W 131°20'1121.1
2018-Aug-09 23:30N 54°40' W 131°29'1121.3
2018-Aug-09 22:58N 54°50' W 131°39'257 5.7
2018-Aug-08 01:46N 58°18' W 136°11'417.0
2018-Aug-08 01:30N 58°20' W 136°03'612.5
2018-Aug-08 01:00N 58°25' W 135°59'510.6
2018-Aug-08 00:30N 58°30' W 136°04'714.7
2018-Aug-08 00:00N 58°38' W 136°03'714.4
2018-Aug-07 23:30N 58°43' W 136°11'916.7
2018-Aug-07 22:59N 58°48' W 136°26'22 7.2
2018-Aug-07 20:00N 59°00' W 137°00'26 6.9 040 / 11011.6 2.2 8.9 8.1 6.3
2018-Aug-07 16:10N 58°45' W 136°18'319.4
2018-Aug-07 16:00N 58°43' W 136°13'1019.2
2018-Aug-07 15:30N 58°35' W 136°04'918.3
2018-Aug-07 15:00N 58°26' W 135°59'611.9
2018-Aug-07 14:30N 58°20' W 135°56'611.8
2018-Aug-07 14:00N 58°18' W 135°46'612.8
2018-Aug-07 13:30N 58°16' W 135°34'713.0
2018-Aug-07 12:56N 58°13' W 135°22'1515.4
2018-Aug-07 12:00N 58°12' W 134°54'6 6.0 150 / 241015.210.8 15.8 9.512.9
2018-Aug-07 11:00N 58°18' W 134°54'238 8.2 170 / 181015.210.8 16.1 9.212.9
2018-Aug-06 06:00N 54°30' W 132°48'411.9 340 / 181017.310.8 14.912.611.2
2018-Aug-06 05:39N 54°34' W 132°51'318.1
2018-Aug-06 05:30N 54°32' W 132°47'4118.4
2018-Aug-06 03:18N 54°22' W 131°39'618.5
2018-Aug-06 02:58N 54°21' W 131°29'918.9
2018-Aug-06 02:30N 54°19' W 131°14'918.0
2018-Aug-06 02:01N 54°14' W 131°02'1019.5
2018-Aug-06 01:30N 54°04' W 130°60'1019.5
2018-Aug-06 01:00N 53°55' W 130°57'1020.3
2018-Aug-06 00:31N 53°45' W 130°53'1020.1
2018-Aug-06 00:01N 53°35' W 130°50'1020.2
2018-Aug-05 23:31N 53°25' W 130°45'1019.6
2018-Aug-05 23:00N 53°16' W 130°39'2121.1
2018-Aug-05 22:01N 52°57' W 130°25'121.7
2018-Aug-05 21:59N 52°56' W 130°24'1621.3
2018-Aug-05 21:14N 52°41' W 130°14'521.5
2018-Aug-05 21:00N 52°37' W 130°11'1121.4
2018-Aug-05 20:28N 52°27' W 130°03'1021.2
2018-Aug-05 20:00N 52°18' W 129°56'1020.9
2018-Aug-05 19:30N 52°08' W 129°49'1020.4
2018-Aug-05 19:00N 51°59' W 129°42'1020.4
2018-Aug-05 18:31N 51°50' W 129°35'1020.6
2018-Aug-05 18:00N 51°41' W 129°28'1020.8
2018-Aug-05 17:31N 51°31' W 129°20'1020.7
2018-Aug-05 17:00N 51°22' W 129°12'1121.3
2018-Aug-05 16:31N 51°13' W 129°05'1121.6
2018-Aug-05 16:00N 51°03' W 128°57'1020.5
2018-Aug-05 15:31N 50°54' W 128°49'1020.9
2018-Aug-05 15:01N 50°45' W 128°41'1121.4
2018-Aug-05 14:30N 50°35' W 128°33'2221.4
2018-Aug-05 13:29N 50°17' W 128°14'1122.3
2018-Aug-05 13:00N 50°08' W 128°05'  

Dump ship's entire track history